Buraimi, Oman
Current Conditions -  °F | °C
As of 1:00 AM on Sunday 26 Oct 2014 (Local Time) from OMAL Reporting Station
Clear Clear  
Wind Chill: 79°   Ceiling: Unl
Heat Index: 81°   Visibility: 6mi
Dew Point: 68°   Wind: 8mph
Humidity: 69%   Direction: 30°NNE
Pressure: 29.88"   Gusts: NA
Location:  24.25°N, 55.79°E
Report Text: OMAL 252100Z 03007KT CAVOK 26/20 Q1012 A2990 NOSIG
Loading
Personal Weather Stations






























Interactive Weather Map
Tropical Storm Tracking
New forecast layout! Learn more

10-Day Weather Forecast

Advertisements
Track Severe Weather on mobile